Time;durP1;ratioP1;P1;durP2;ratioP2;P2;SDS_P1;SDS_P2;PMS_P1;PMS_P2;Temp;Humidity;BMP_temperature;BMP_pressure;BME280_temperature;BME280_humidity;BME280_pressure;Samples;Min_cycle;Max_cycle;Signal;HPM_P1;HPM_P2
2021/05/08 00:00:55;;;;;;;11.88;5.82;;;4.70;99.90;;;;;;5045239;28;20136;-84
2021/05/08 00:03:22;;;;;;;11.07;6.13;;;4.60;99.90;;;;;;5052736;28;20051;-84
2021/05/08 00:05:49;;;;;;;7.28;5.55;;;4.60;99.90;;;;;;5034896;28;20060;-85
2021/05/08 00:08:15;;;;;;;9.07;5.80;;;4.60;99.90;;;;;;5050032;28;20080;-84
2021/05/08 00:10:42;;;;;;;10.05;6.32;;;4.60;99.90;;;;;;5053472;28;20139;-84
2021/05/08 00:13:09;;;;;;;12.18;6.40;;;4.50;99.90;;;;;;5050532;28;20041;-84
2021/05/08 00:15:35;;;;;;;11.45;6.68;;;4.50;99.90;;;;;;5051754;28;20059;-84
2021/05/08 00:18:02;;;;;;;10.35;6.20;;;4.40;99.90;;;;;;5051109;28;20107;-85
2021/05/08 00:20:28;;;;;;;12.55;7.38;;;4.40;99.90;;;;;;5049708;28;20048;-85
2021/05/08 00:22:56;;;;;;;11.90;7.38;;;4.40;99.90;;;;;;5049571;28;20131;-85
2021/05/08 00:25:22;;;;;;;15.75;7.10;;;4.40;99.90;;;;;;5048942;28;20049;-84
2021/05/08 00:27:49;;;;;;;16.45;7.00;;;4.40;99.90;;;;;;5047811;28;20044;-84
2021/05/08 00:30:16;;;;;;;12.38;7.32;;;4.30;99.90;;;;;;5051370;28;20049;-84
2021/05/08 00:32:42;;;;;;;12.00;7.05;;;4.20;99.90;;;;;;5051483;28;20068;-85
2021/05/08 00:35:09;;;;;;;10.65;7.10;;;4.20;99.90;;;;;;5049689;28;20413;-83
2021/05/08 00:37:36;;;;;;;12.93;8.60;;;4.20;99.90;;;;;;5049854;28;20068;-85
2021/05/08 00:40:04;;;;;;;13.40;8.10;;;4.20;99.90;;;;;;5050649;28;20075;-85
2021/05/08 00:42:30;;;;;;;12.00;7.93;;;4.10;99.90;;;;;;5051299;28;20544;-84
2021/05/08 00:44:57;;;;;;;12.70;7.55;;;4.10;99.90;;;;;;5068651;28;20512;-84
2021/05/08 00:47:24;;;;;;;15.90;8.02;;;4.00;99.90;;;;;;5051440;28;20434;-84
2021/05/08 00:49:50;;;;;;;20.00;8.25;;;4.00;99.90;;;;;;5049991;28;20456;-84
2021/05/08 00:52:17;;;;;;;14.23;7.85;;;3.90;99.90;;;;;;5064451;28;20597;-85
2021/05/08 00:54:44;;;;;;;15.43;7.32;;;3.90;99.90;;;;;;5048169;28;20068;-84
2021/05/08 00:57:11;;;;;;;13.07;8.63;;;3.90;99.90;;;;;;5050881;28;20043;-82
2021/05/08 00:59:38;;;;;;;14.63;8.27;;;3.90;99.90;;;;;;5053292;28;20067;-83
2021/05/08 01:02:05;;;;;;;12.15;8.15;;;3.80;99.90;;;;;;5067171;28;20049;-82
2021/05/08 01:04:32;;;;;;;15.02;7.85;;;3.80;99.90;;;;;;5051852;28;20059;-82
2021/05/08 01:07:00;;;;;;;12.50;8.30;;;3.80;99.90;;;;;;5052496;28;20065;-83
2021/05/08 01:09:26;;;;;;;15.15;9.77;;;3.80;99.90;;;;;;5052044;28;20056;-83
2021/05/08 01:11:54;;;;;;;17.02;9.40;;;3.70;99.90;;;;;;5050874;28;20059;-83
2021/05/08 01:14:20;;;;;;;19.20;10.07;;;3.70;99.90;;;;;;5066731;28;20385;-83
2021/05/08 01:16:47;;;;;;;16.85;9.60;;;3.70;99.90;;;;;;5045996;28;20136;-82
2021/05/08 01:19:16;;;;;;;19.30;10.40;;;3.70;99.90;;;;;;5052218;28;20045;-82
2021/05/08 01:21:43;;;;;;;22.30;10.48;;;3.70;99.90;;;;;;5049365;28;20060;-83
2021/05/08 01:24:09;;;;;;;15.77;9.85;;;3.70;99.90;;;;;;5052560;28;20072;-84
2021/05/08 01:26:36;;;;;;;16.00;10.25;;;3.70;99.90;;;;;;5068579;28;20044;-83
2021/05/08 01:29:04;;;;;;;14.50;10.02;;;3.70;99.90;;;;;;5052598;28;20040;-83
2021/05/08 01:31:30;;;;;;;17.95;10.25;;;3.70;99.90;;;;;;5065200;28;20116;-83
2021/05/08 01:33:57;;;;;;;19.67;11.15;;;3.70;99.90;;;;;;5050378;28;20049;-83
2021/05/08 01:36:24;;;;;;;17.00;9.95;;;3.70;99.90;;;;;;5050916;28;20492;-83
2021/05/08 01:38:50;;;;;;;20.80;10.68;;;3.70;99.90;;;;;;5063439;28;20052;-84
2021/05/08 01:41:17;;;;;;;18.42;9.90;;;3.60;99.90;;;;;;5061303;28;20052;-83
2021/05/08 01:43:43;;;;;;;15.93;10.18;;;3.60;99.90;;;;;;5051668;28;20145;-83
2021/05/08 01:46:10;;;;;;;18.70;10.32;;;3.50;99.90;;;;;;5050500;28;20049;-83
2021/05/08 01:48:40;;;;;;;16.50;10.10;;;3.60;99.90;;;;;;5051255;28;20102;-83
2021/05/08 01:51:06;;;;;;;24.55;11.45;;;3.50;99.90;;;;;;5058132;28;20084;-83
2021/05/08 01:53:32;;;;;;;17.00;10.60;;;3.50;99.90;;;;;;5050842;28;20048;-83
2021/05/08 01:55:59;;;;;;;18.50;10.63;;;3.40;99.90;;;;;;5052536;28;20044;-82
2021/05/08 01:58:30;;;;;;;20.35;11.00;;;3.40;99.90;;;;;;5049230;28;20557;-82
2021/05/08 02:00:56;;;;;;;22.50;11.18;;;3.40;99.90;;;;;;5052182;28;20080;-83
2021/05/08 02:03:22;;;;;;;18.60;11.18;;;3.40;99.90;;;;;;5058601;28;20048;-83
2021/05/08 02:05:50;;;;;;;14.98;10.13;;;3.40;99.90;;;;;;5050933;28;20057;-84
2021/05/08 02:08:17;;;;;;;20.15;10.73;;;3.40;99.90;;;;;;5048521;28;20051;-83
2021/05/08 02:10:45;;;;;;;17.10;9.85;;;3.40;99.90;;;;;;5051133;28;20076;-83
2021/05/08 02:13:12;;;;;;;16.88;10.55;;;3.40;99.90;;;;;;5048966;28;20084;-83
2021/05/08 02:15:39;;;;;;;17.98;11.25;;;3.40;99.90;;;;;;5050063;28;20136;-83
2021/05/08 02:18:06;;;;;;;20.27;12.13;;;3.30;99.90;;;;;;5049612;28;20072;-83
2021/05/08 02:20:36;;;;;;;18.80;11.23;;;3.30;99.90;;;;;;5068907;28;20052;-83
2021/05/08 02:23:04;;;;;;;21.40;11.43;;;3.30;99.90;;;;;;5068038;28;20438;-84
2021/05/08 02:25:31;;;;;;;21.40;11.80;;;3.20;99.90;;;;;;5051653;28;20117;-84
2021/05/08 02:27:58;;;;;;;21.75;11.02;;;3.20;99.90;;;;;;5059025;28;20563;-84
2021/05/08 02:30:31;;;;;;;22.77;11.85;;;3.20;99.90;;;;;;5050674;28;20235;-83
2021/05/08 02:32:59;;;;;;;25.63;11.93;;;3.10;99.90;;;;;;5065066;28;20057;-83
2021/05/08 02:35:26;;;;;;;22.58;12.77;;;3.10;99.90;;;;;;5048975;28;20103;-83
2021/05/08 02:37:54;;;;;;;23.30;11.82;;;3.10;99.90;;;;;;5052209;28;20051;-83
2021/05/08 02:40:24;;;;;;;19.70;11.15;;;3.10;99.90;;;;;;5066969;28;20049;-83
2021/05/08 02:42:51;;;;;;;20.42;11.45;;;3.10;99.90;;;;;;5050777;28;20045;-83
2021/05/08 02:45:18;;;;;;;25.75;11.88;;;3.10;99.90;;;;;;5059965;28;20119;-83
2021/05/08 02:47:46;;;;;;;19.55;12.45;;;3.10;99.90;;;;;;5050608;28;20064;-83
2021/05/08 02:50:15;;;;;;;21.23;12.00;;;3.10;99.90;;;;;;5048455;28;20052;-83
2021/05/08 02:52:42;;;;;;;25.55;11.88;;;3.10;99.90;;;;;;5051113;28;20044;-83
2021/05/08 02:55:09;;;;;;;26.50;12.68;;;3.10;99.90;;;;;;5043350;28;20049;-83
2021/05/08 02:57:37;;;;;;;19.65;11.02;;;3.10;99.90;;;;;;5054344;28;20057;-82
2021/05/08 03:00:09;;;;;;;25.40;12.40;;;3.10;99.90;;;;;;5047300;28;20052;-83
2021/05/08 03:02:35;;;;;;;25.50;12.35;;;3.10;99.90;;;;;;5054237;28;20073;-83
2021/05/08 03:05:03;;;;;;;21.95;11.70;;;3.10;99.90;;;;;;5052690;28;20111;-83
2021/05/08 03:07:29;;;;;;;17.75;11.35;;;3.00;99.90;;;;;;5067903;28;20049;-83
2021/05/08 03:09:57;;;;;;;21.67;10.98;;;3.00;99.90;;;;;;5059006;28;20072;-82
2021/05/08 03:12:23;;;;;;;22.33;11.85;;;3.00;99.90;;;;;;5053837;28;20072;-83
2021/05/08 03:14:50;;;;;;;19.95;11.60;;;3.00;99.90;;;;;;5044058;28;20079;-83
2021/05/08 03:17:17;;;;;;;22.42;11.07;;;3.00;99.90;;;;;;5054853;28;20056;-83
2021/05/08 03:19:44;;;;;;;22.08;11.98;;;2.90;99.90;;;;;;5052889;28;20057;-83
2021/05/08 03:22:10;;;;;;;22.38;11.82;;;3.00;99.90;;;;;;5055210;28;20112;-83
2021/05/08 03:24:37;;;;;;;24.10;11.75;;;2.90;99.90;;;;;;5051732;28;20059;-82
2021/05/08 03:27:03;;;;;;;22.15;11.95;;;2.90;99.90;;;;;;5054371;28;20387;-83
2021/05/08 03:29:30;;;;;;;22.98;12.55;;;2.90;99.90;;;;;;5052031;28;20081;-83
2021/05/08 03:31:56;;;;;;;21.70;11.65;;;2.90;99.90;;;;;;5050441;28;20049;-83
2021/05/08 03:34:23;;;;;;;24.50;11.00;;;2.90;99.90;;;;;;5051754;28;20049;-83
2021/05/08 03:36:49;;;;;;;20.92;12.45;;;2.80;99.90;;;;;;5040404;28;20051;-83
2021/05/08 03:39:16;;;;;;;22.88;12.48;;;2.80;99.90;;;;;;5050834;28;20053;-83
2021/05/08 03:41:43;;;;;;;22.70;11.85;;;2.80;99.90;;;;;;5053962;28;20056;-83
2021/05/08 03:44:09;;;;;;;18.92;11.45;;;2.80;99.90;;;;;;5052368;28;20099;-83
2021/05/08 03:46:36;;;;;;;31.02;12.15;;;2.80;99.90;;;;;;5052477;28;20073;-83
2021/05/08 03:49:03;;;;;;;25.55;11.63;;;2.70;99.90;;;;;;5055960;28;20136;-83
2021/05/08 03:51:30;;;;;;;22.83;11.93;;;2.70;99.90;;;;;;5060739;28;22102;-83
2021/05/08 03:53:58;;;;;;;18.23;11.25;;;2.70;99.90;;;;;;5049190;28;20084;-83
2021/05/08 03:56:24;;;;;;;27.45;13.40;;;2.70;99.90;;;;;;5053092;28;20123;-83
2021/05/08 03:58:51;;;;;;;21.25;12.18;;;2.70;99.90;;;;;;5051485;28;20073;-83
2021/05/08 04:01:17;;;;;;;24.63;12.55;;;2.70;99.90;;;;;;5059853;28;20610;-83
2021/05/08 04:03:43;;;;;;;22.70;13.57;;;2.70;99.90;;;;;;5058484;28;20075;-82
2021/05/08 04:06:10;;;;;;;22.83;12.80;;;2.70;99.90;;;;;;5052515;28;20075;-82
2021/05/08 04:08:36;;;;;;;24.67;12.98;;;2.70;99.90;;;;;;5053107;28;20139;-82
2021/05/08 04:11:03;;;;;;;18.85;11.95;;;2.60;99.90;;;;;;5044276;28;20498;-82
2021/05/08 04:13:29;;;;;;;22.50;12.52;;;2.70;99.90;;;;;;5051695;28;21503;-82
2021/05/08 04:15:56;;;;;;;25.92;13.18;;;2.70;99.90;;;;;;5056880;28;20048;-83
2021/05/08 04:18:22;;;;;;;24.50;13.32;;;2.70;99.90;;;;;;5052470;28;20419;-82
2021/05/08 04:20:48;;;;;;;22.48;12.52;;;2.70;99.90;;;;;;5052585;28;20049;-82
2021/05/08 04:23:16;;;;;;;27.80;12.15;;;2.70;99.90;;;;;;5070802;28;20475;-82
2021/05/08 04:25:43;;;;;;;25.83;12.23;;;2.70;99.90;;;;;;5052377;28;20049;-82
2021/05/08 04:28:09;;;;;;;26.77;13.07;;;2.70;99.90;;;;;;5053890;28;20072;-82
2021/05/08 04:30:36;;;;;;;26.88;13.60;;;2.80;99.90;;;;;;5052807;28;20065;-82
2021/05/08 04:33:16;;;;;;;19.73;11.48;;;2.80;99.90;;;;;;5052770;28;20072;-82
2021/05/08 04:35:43;;;;;;;25.35;11.52;;;2.80;99.90;;;;;;5068572;28;20147;-82
2021/05/08 04:38:09;;;;;;;25.10;11.98;;;2.90;99.90;;;;;;5057857;28;20044;-82
2021/05/08 04:40:35;;;;;;;24.05;13.05;;;3.00;99.90;;;;;;5051091;28;20067;-83
2021/05/08 04:43:02;;;;;;;19.52;11.80;;;3.00;99.90;;;;;;5057950;28;20079;-83
2021/05/08 04:45:28;;;;;;;24.27;11.82;;;3.10;99.90;;;;;;5048158;28;20048;-82
2021/05/08 04:47:58;;;;;;;19.02;12.02;;;3.20;99.90;;;;;;5048927;28;20472;-82
2021/05/08 04:50:25;;;;;;;21.75;12.07;;;3.30;99.90;;;;;;5051927;28;20060;-82
2021/05/08 04:52:52;;;;;;;25.00;11.70;;;3.40;99.90;;;;;;5051051;28;20047;-83
2021/05/08 04:55:19;;;;;;;19.02;11.32;;;3.50;99.90;;;;;;5055065;28;20603;-82
2021/05/08 04:57:48;;;;;;;20.85;10.82;;;3.60;99.90;;;;;;5050374;28;20051;-83
2021/05/08 05:00:15;;;;;;;18.42;11.93;;;3.70;99.90;;;;;;5049591;28;20113;-84
2021/05/08 05:02:43;;;;;;;16.80;10.75;;;3.90;99.90;;;;;;5046887;28;20057;-83
2021/05/08 05:05:13;;;;;;;19.27;10.70;;;4.00;99.90;;;;;;5067015;28;20091;-84
2021/05/08 05:07:43;;;;;;;16.33;10.23;;;4.10;99.90;;;;;;5052979;28;20064;-84
2021/05/08 05:10:11;;;;;;;17.50;10.98;;;4.30;99.90;;;;;;5054888;28;20045;-83
2021/05/08 05:12:38;;;;;;;18.17;10.10;;;4.40;99.90;;;;;;5051259;28;20079;-84
2021/05/08 05:15:06;;;;;;;21.55;10.70;;;4.60;99.90;;;;;;5058178;28;20105;-83
2021/05/08 05:17:32;;;;;;;19.23;10.48;;;4.80;99.90;;;;;;5059100;28;20059;-83
2021/05/08 05:20:00;;;;;;;18.75;10.07;;;5.00;99.90;;;;;;5065686;28;20032;-83
2021/05/08 05:22:26;;;;;;;16.42;10.98;;;5.10;99.90;;;;;;5064788;28;20036;-83
2021/05/08 05:24:52;;;;;;;18.35;11.02;;;5.20;99.90;;;;;;5058122;28;20044;-82
2021/05/08 05:27:18;;;;;;;16.88;9.07;;;5.30;99.90;;;;;;5065906;28;20029;-83
2021/05/08 05:29:46;;;;;;;16.48;10.32;;;5.30;99.90;;;;;;5062462;28;20113;-83
2021/05/08 05:32:12;;;;;;;18.75;9.57;;;5.30;99.90;;;;;;5072477;28;20044;-83
2021/05/08 05:34:39;;;;;;;17.88;10.77;;;5.40;99.90;;;;;;5077076;28;20053;-80
2021/05/08 05:37:05;;;;;;;17.95;10.32;;;5.40;99.90;;;;;;5062793;28;20083;-80
2021/05/08 05:39:32;;;;;;;15.80;10.25;;;5.50;99.90;;;;;;5068881;28;20093;-80
2021/05/08 05:41:58;;;;;;;18.52;9.40;;;5.60;99.90;;;;;;5063078;28;20056;-80
2021/05/08 05:44:24;;;;;;;13.70;9.40;;;5.70;99.90;;;;;;5077445;28;20051;-80
2021/05/08 05:46:52;;;;;;;16.08;10.35;;;5.90;99.90;;;;;;5061356;28;20040;-80
2021/05/08 05:49:19;;;;;;;14.85;9.13;;;6.00;99.90;;;;;;5061846;28;20024;-80
2021/05/08 05:51:45;;;;;;;21.50;10.63;;;6.20;99.90;;;;;;5076632;28;20060;-80
2021/05/08 05:54:12;;;;;;;16.42;10.20;;;6.40;99.90;;;;;;5054488;28;20049;-80
2021/05/08 05:56:40;;;;;;;17.60;10.20;;;6.70;99.90;;;;;;5068108;28;20542;-80
2021/05/08 05:59:07;;;;;;;13.38;9.10;;;7.10;99.90;;;;;;5063968;28;20131;-80
2021/05/08 06:01:33;;;;;;;12.05;8.68;;;7.40;99.90;;;;;;5066895;28;20041;-80
2021/05/08 06:03:59;;;;;;;13.10;8.70;;;7.60;99.90;;;;;;5050773;28;20048;-80
2021/05/08 06:06:26;;;;;;;19.13;9.68;;;7.60;99.90;;;;;;5047770;28;20132;-80
2021/05/08 06:08:52;;;;;;;16.33;9.93;;;7.70;99.90;;;;;;5045122;28;20473;-80
2021/05/08 06:11:21;;;;;;;17.58;10.65;;;7.70;99.90;;;;;;5059909;28;20522;-81
2021/05/08 06:13:48;;;;;;;16.77;9.60;;;7.80;99.90;;;;;;5045922;28;20071;-81
2021/05/08 06:16:17;;;;;;;12.48;9.00;;;7.90;99.90;;;;;;5064202;28;20049;-81
2021/05/08 06:18:43;;;;;;;15.43;9.45;;;8.00;99.90;;;;;;5067924;28;20080;-81
2021/05/08 06:21:10;;;;;;;18.20;9.77;;;8.10;99.90;;;;;;5059218;28;20506;-81
2021/05/08 06:23:37;;;;;;;14.32;9.35;;;8.30;99.90;;;;;;5045713;28;20514;-81
2021/05/08 06:26:03;;;;;;;15.02;9.43;;;8.40;99.90;;;;;;5043266;28;20045;-81
2021/05/08 06:28:30;;;;;;;12.75;9.57;;;8.60;99.90;;;;;;5039371;28;20061;-81
2021/05/08 06:30:56;;;;;;;20.10;10.68;;;8.60;99.90;;;;;;5042788;28;20455;-81
2021/05/08 06:33:25;;;;;;;17.45;10.45;;;8.70;99.90;;;;;;5035371;28;20098;-80
2021/05/08 06:35:52;;;;;;;14.13;9.50;;;8.80;99.90;;;;;;5041186;28;20064;-80
2021/05/08 06:38:18;;;;;;;10.80;8.68;;;8.90;99.90;;;;;;5060162;28;20052;-82
2021/05/08 06:40:45;;;;;;;14.45;8.73;;;9.00;99.90;;;;;;5047647;28;20147;-81
2021/05/08 06:43:12;;;;;;;12.48;8.20;;;9.10;99.90;;;;;;5051250;28;20072;-82
2021/05/08 06:45:38;;;;;;;18.77;9.93;;;9.20;99.90;;;;;;5062921;28;20424;-81
2021/05/08 06:48:07;;;;;;;11.88;7.75;;;9.30;99.90;;;;;;5053126;28;20430;-81
2021/05/08 06:50:34;;;;;;;20.60;8.35;;;9.50;99.90;;;;;;5048810;28;20492;-81
2021/05/08 06:53:02;;;;;;;15.98;8.77;;;9.60;99.90;;;;;;5050696;28;20045;-82
2021/05/08 06:55:28;;;;;;;13.95;8.57;;;9.80;99.90;;;;;;5047633;28;20056;-81
2021/05/08 06:57:56;;;;;;;10.65;8.00;;;9.90;99.90;;;;;;5064826;28;20057;-81
2021/05/08 07:00:22;;;;;;;13.73;7.85;;;10.00;99.90;;;;;;5052661;28;20063;-81
2021/05/08 07:02:49;;;;;;;10.75;7.50;;;10.10;99.90;;;;;;5051649;28;20053;-81
2021/05/08 07:05:16;;;;;;;10.30;7.75;;;10.20;99.90;;;;;;5042656;28;20064;-81
2021/05/08 07:07:42;;;;;;;11.35;7.63;;;10.20;99.90;;;;;;5047690;28;20041;-81
2021/05/08 07:11:00;;;;;;;11.60;7.65;;;10.30;99.90;;;;;;5047406;28;20049;-82
2021/05/08 07:13:29;;;;;;;12.00;7.28;;;10.40;99.90;;;;;;5041753;28;20155;-81
2021/05/08 07:15:56;;;;;;;10.45;7.43;;;10.40;99.90;;;;;;5050650;28;20037;-82
2021/05/08 07:18:24;;;;;;;12.07;6.93;;;10.50;99.90;;;;;;5045410;28;20060;-81
2021/05/08 07:20:51;;;;;;;11.55;8.07;;;10.70;99.90;;;;;;5050166;28;20041;-81
2021/05/08 07:23:18;;;;;;;10.45;7.47;;;10.80;99.90;;;;;;5063351;28;20064;-81
2021/05/08 07:25:45;;;;;;;14.93;7.95;;;10.90;99.90;;;;;;5048087;28;20507;-82
2021/05/08 07:28:19;;;;;;;16.50;8.13;;;10.90;99.90;;;;;;5028118;28;20522;-81
2021/05/08 07:30:48;;;;;;;11.20;8.48;;;11.00;99.90;;;;;;5068060;28;20045;-81
2021/05/08 07:33:16;;;;;;;12.65;7.88;;;11.00;99.90;;;;;;5045318;28;20033;-81
2021/05/08 07:35:43;;;;;;;12.07;8.07;;;11.10;99.90;;;;;;5046095;28;20060;-82
2021/05/08 07:38:10;;;;;;;12.20;7.85;;;11.20;99.90;;;;;;5058172;28;20407;-81
2021/05/08 07:40:38;;;;;;;10.77;7.72;;;11.30;99.90;;;;;;5046905;28;20057;-80
2021/05/08 07:43:06;;;;;;;9.32;7.57;;;11.30;99.90;;;;;;5048547;28;20388;-80
2021/05/08 07:45:32;;;;;;;10.65;7.65;;;11.20;99.90;;;;;;5046366;28;20045;-81
2021/05/08 07:47:59;;;;;;;15.50;8.63;;;11.20;99.90;;;;;;5040954;28;20048;-81
2021/05/08 07:50:28;;;;;;;13.32;8.20;;;11.30;99.90;;;;;;5037281;28;20545;-81
2021/05/08 07:52:55;;;;;;;12.45;9.07;;;11.40;99.90;;;;;;5043641;28;20071;-82
2021/05/08 07:55:23;;;;;;;10.77;8.07;;;11.60;99.90;;;;;;5061025;28;20052;-81
2021/05/08 07:57:50;;;;;;;13.27;7.88;;;11.80;99.90;;;;;;5047092;28;20086;-81
2021/05/08 08:00:19;;;;;;;14.25;8.35;;;11.90;99.90;;;;;;5061754;28;20135;-81
2021/05/08 08:02:46;;;;;;;12.40;8.80;;;11.90;99.90;;;;;;5030490;28;20043;-80
2021/05/08 08:05:13;;;;;;;13.30;8.88;;;12.00;99.90;;;;;;5064637;28;20052;-80
2021/05/08 08:07:40;;;;;;;12.55;8.35;;;12.10;99.90;;;;;;5054707;28;20048;-80
2021/05/08 08:10:08;;;;;;;12.35;8.35;;;12.10;99.90;;;;;;5044390;28;20049;-82
2021/05/08 08:12:36;;;;;;;12.52;8.45;;;12.10;99.90;;;;;;5030389;28;20049;-80
2021/05/08 08:15:03;;;;;;;14.07;8.63;;;12.10;99.90;;;;;;5055143;28;20455;-81
2021/05/08 08:17:31;;;;;;;15.85;9.35;;;12.10;99.90;;;;;;5045659;28;20049;-81
2021/05/08 08:19:58;;;;;;;11.10;8.52;;;12.20;99.90;;;;;;5061074;28;20041;-80
2021/05/08 08:22:25;;;;;;;11.38;7.70;;;12.30;99.90;;;;;;5048766;28;20060;-82
2021/05/08 08:24:52;;;;;;;11.25;7.82;;;12.30;99.80;;;;;;5044627;28;20056;-80
2021/05/08 08:27:19;;;;;;;11.98;7.28;;;12.40;99.10;;;;;;5046165;28;20056;-80
2021/05/08 08:29:45;;;;;;;10.20;7.30;;;12.40;98.80;;;;;;5045689;28;20048;-80
2021/05/08 08:32:11;;;;;;;9.63;6.75;;;12.40;99.20;;;;;;5046449;28;20044;-81
2021/05/08 08:34:38;;;;;;;9.90;6.82;;;12.30;97.20;;;;;;5047272;28;20135;-80
2021/05/08 08:37:06;;;;;;;9.70;6.78;;;12.40;98.70;;;;;;5061293;28;20060;-80
2021/05/08 08:39:32;;;;;;;14.55;7.65;;;12.50;99.60;;;;;;5043530;28;20455;-80
2021/05/08 08:41:59;;;;;;;11.63;6.32;;;12.60;98.40;;;;;;5055510;28;20072;-80
2021/05/08 08:44:25;;;;;;;9.50;6.22;;;12.80;99.20;;;;;;5049249;28;20048;-81
2021/05/08 08:46:52;;;;;;;17.02;6.50;;;12.90;96.40;;;;;;5029086;28;20098;-81
2021/05/08 08:49:18;;;;;;;7.53;5.32;;;12.90;95.30;;;;;;5058408;28;20045;-80
2021/05/08 08:51:45;;;;;;;7.68;5.22;;;13.00;96.80;;;;;;5037795;28;20056;-81
2021/05/08 08:54:15;;;;;;;8.25;5.03;;;13.00;95.00;;;;;;5048192;28;20045;-81
2021/05/08 08:56:45;;;;;;;12.50;5.80;;;13.00;96.20;;;;;;5058522;28;20045;-80
2021/05/08 08:59:30;;;;;;;8.13;5.03;;;13.10;94.60;;;;;;5046362;28;20074;-80
2021/05/08 09:01:56;;;;;;;11.77;5.05;;;13.30;94.80;;;;;;5059832;28;20053;-81
2021/05/08 09:04:23;;;;;;;7.97;4.55;;;13.60;93.40;;;;;;5046242;28;20049;-80
2021/05/08 09:06:49;;;;;;;9.93;4.45;;;13.80;91.20;;;;;;5045021;28;20063;-80
2021/05/08 09:09:18;;;;;;;9.50;4.55;;;13.90;90.40;;;;;;5046528;28;20079;-80
2021/05/08 09:11:54;;;;;;;11.35;4.95;;;14.00;90.70;;;;;;5045232;28;20088;-80
2021/05/08 09:14:29;;;;;;;8.95;5.38;;;14.10;86.10;;;;;;5041846;28;21412;-81
2021/05/08 09:17:15;;;;;;;12.90;5.00;;;14.20;84.70;;;;;;5062836;28;20403;-81
2021/05/08 09:19:51;;;;;;;12.75;5.22;;;14.20;84.40;;;;;;5044738;28;20049;-81
2021/05/08 09:22:30;;;;;;;10.70;5.25;;;14.30;82.90;;;;;;5045305;28;20152;-80
2021/05/08 09:25:04;;;;;;;7.00;4.43;;;14.20;84.10;;;;;;5046914;28;20049;-80
2021/05/08 09:27:32;;;;;;;7.28;4.85;;;14.20;81.90;;;;;;5048406;28;20443;-81
2021/05/08 09:30:11;;;;;;;8.43;4.40;;;14.20;81.70;;;;;;5049297;28;20057;-80
2021/05/08 09:32:43;;;;;;;10.52;5.60;;;14.10;79.10;;;;;;5042021;28;20056;-80
2021/05/08 09:35:18;;;;;;;7.80;5.15;;;14.10;82.60;;;;;;5059016;28;20044;-81
2021/05/08 09:37:46;;;;;;;9.65;4.70;;;14.10;83.40;;;;;;5028186;28;20551;-80
2021/05/08 09:40:23;;;;;;;9.57;4.03;;;14.30;81.00;;;;;;5043595;28;20052;-80
2021/05/08 09:42:56;;;;;;;121.78;60.60;;;14.40;83.00;;;;;;5042521;28;20679;-81
2021/05/08 09:45:25;;;;;;;83.60;43.83;;;14.50;78.60;;;;;;5043189;28;20053;-80
2021/05/08 09:47:52;;;;;;;19.58;8.48;;;14.70;79.50;;;;;;5045251;28;20404;-81
2021/05/08 09:50:25;;;;;;;10.80;5.20;;;14.80;78.20;;;;;;5059410;28;20090;-80
2021/05/08 09:52:54;;;;;;;9.88;4.50;;;14.80;77.60;;;;;;5045886;28;20063;-82
2021/05/08 09:55:22;;;;;;;9.55;4.40;;;14.80;78.00;;;;;;5043820;28;20045;-80
2021/05/08 09:58:04;;;;;;;7.03;4.70;;;14.90;76.50;;;;;;5044114;28;20053;-80
2021/05/08 10:00:41;;;;;;;6.03;4.60;;;15.00;78.70;;;;;;5047283;28;20049;-80
2021/05/08 10:03:10;;;;;;;9.23;5.65;;;15.10;77.10;;;;;;5043259;28;20048;-81
2021/05/08 10:05:42;;;;;;;9.05;4.30;;;15.20;74.30;;;;;;5060744;28;20052;-81
2021/05/08 10:08:09;;;;;;;7.03;4.13;;;15.10;73.10;;;;;;5043464;28;20051;-81
2021/05/08 10:10:36;;;;;;;7.63;4.45;;;15.10;73.00;;;;;;5045395;28;20056;-81
2021/05/08 10:13:11;;;;;;;6.50;4.50;;;15.20;73.80;;;;;;5042312;28;20091;-81
2021/05/08 10:15:40;;;;;;;5.68;4.03;;;15.40;76.50;;;;;;5046600;28;20060;-81
2021/05/08 10:18:10;;;;;;;7.88;4.10;;;15.60;72.60;;;;;;5047101;28;20468;-81
2021/05/08 10:20:39;;;;;;;5.28;4.57;;;15.60;70.80;;;;;;5061839;28;20080;-81
2021/05/08 10:23:08;;;;;;;7.15;4.47;;;15.50;72.70;;;;;;5039650;28;20096;-81
2021/05/08 10:25:39;;;;;;;7.95;4.22;;;15.40;75.10;;;;;;5046812;28;20045;-81
2021/05/08 10:28:07;;;;;;;9.55;4.00;;;15.50;74.60;;;;;;5046027;28;20049;-80
2021/05/08 10:30:39;;;;;;;6.03;3.70;;;15.40;72.40;;;;;;5045007;28;20053;-81
2021/05/08 10:33:12;;;;;;;5.05;3.47;;;15.30;74.00;;;;;;5044873;28;20053;-81
2021/05/08 10:35:51;;;;;;;6.15;3.55;;;15.20;77.90;;;;;;5044634;28;20136;-81
2021/05/08 10:38:33;;;;;;;4.93;3.15;;;15.20;75.60;;;;;;5044242;28;20053;-81
2021/05/08 10:41:11;;;;;;;4.53;3.40;;;15.00;72.70;;;;;;5038846;28;20049;-81
2021/05/08 10:43:52;;;;;;;4.50;3.35;;;14.80;74.60;;;;;;5038475;28;20083;-81
2021/05/08 10:46:24;;;;;;;4.40;2.92;;;14.60;74.60;;;;;;5044749;28;20060;-81
2021/05/08 10:49:14;;;;;;;4.50;2.70;;;14.50;76.70;;;;;;5060403;28;20045;-81
2021/05/08 10:51:53;;;;;;;5.28;2.80;;;14.50;77.50;;;;;;5044758;28;20068;-81
2021/05/08 10:54:43;;;;;;;4.93;2.42;;;14.50;75.10;;;;;;5044058;28;20049;-81
2021/05/08 10:57:22;;;;;;;4.97;3.10;;;14.50;78.00;;;;;;5044622;28;20469;-81
2021/05/08 11:00:09;;;;;;;6.15;2.92;;;14.50;75.80;;;;;;5042338;28;20134;-81
2021/05/08 11:02:44;;;;;;;3.70;2.97;;;14.50;77.60;;;;;;5043354;28;20056;-81
2021/05/08 11:05:27;;;;;;;2.88;2.33;;;14.50;76.40;;;;;;5060336;28;20052;-81
2021/05/08 11:07:54;;;;;;;3.60;2.40;;;14.50;76.10;;;;;;5041995;28;20441;-81
2021/05/08 11:11:03;;;;;;;6.55;3.10;;;14.60;77.40;;;;;;5046517;28;20109;-81
2021/05/08 11:13:41;;;;;;;9.48;3.25;;;14.60;80.70;;;;;;5020217;28;20061;-81
2021/05/08 11:16:08;;;;;;;6.18;3.45;;;14.60;78.80;;;;;;5062356;28;20045;-81
2021/05/08 11:18:45;;;;;;;5.68;3.80;;;14.50;80.90;;;;;;5046188;28;20049;-81
2021/05/08 11:21:15;;;;;;;10.27;3.83;;;14.30;83.40;;;;;;5039785;28;20101;-82
2021/05/08 11:23:54;;;;;;;6.63;3.38;;;14.20;83.70;;;;;;5045289;28;20056;-81
2021/05/08 11:26:20;;;;;;;5.00;2.95;;;14.00;86.60;;;;;;5048619;28;20049;-82
2021/05/08 11:29:08;;;;;;;6.00;3.42;;;13.90;90.10;;;;;;5042537;28;20045;-80
2021/05/08 11:31:47;;;;;;;5.30;3.22;;;13.90;90.10;;;;;;5033714;28;20060;-81
2021/05/08 11:34:19;;;;;;;4.45;2.88;;;13.80;90.60;;;;;;5032458;28;20048;-81
2021/05/08 11:36:49;;;;;;;3.88;2.75;;;13.70;93.40;;;;;;5037583;28;20066;-82
2021/05/08 11:39:23;;;;;;;4.05;2.85;;;13.60;91.70;;;;;;5059379;28;20064;-80
2021/05/08 11:41:54;;;;;;;5.32;2.92;;;13.40;95.70;;;;;;5039674;28;20045;-80
2021/05/08 11:44:35;;;;;;;3.90;2.78;;;13.30;97.00;;;;;;5045862;28;20569;-81
2021/05/08 11:50:19;;;;;;;4.35;3.25;;;13.10;99.90;;;;;;5045938;28;20049;-81
2021/05/08 11:52:48;;;;;;;5.72;3.35;;;13.10;99.90;;;;;;5044601;28;20589;-81
2021/05/08 11:55:20;;;;;;;4.45;4.00;;;13.00;99.90;;;;;;5042534;28;20053;-81
2021/05/08 11:57:57;;;;;;;4.72;3.50;;;12.90;99.90;;;;;;5047258;28;20086;-81
2021/05/08 12:00:26;;;;;;;5.85;4.15;;;12.80;99.90;;;;;;5045455;28;20052;-82
2021/05/08 12:03:07;;;;;;;7.68;4.25;;;12.70;99.90;;;;;;5058052;28;20053;-81
2021/05/08 12:05:38;;;;;;;7.80;4.53;;;12.50;99.90;;;;;;5046752;28;20049;-80
2021/05/08 12:08:07;;;;;;;5.78;4.50;;;12.40;99.90;;;;;;5060842;28;20053;-81
2021/05/08 12:10:35;;;;;;;5.65;3.88;;;12.20;99.90;;;;;;5046126;28;20049;-80
2021/05/08 12:13:02;;;;;;;7.38;4.95;;;12.10;99.90;;;;;;5047092;28;20052;-81
2021/05/08 12:15:37;;;;;;;6.40;4.45;;;12.10;99.90;;;;;;5062554;28;20064;-81
2021/05/08 12:18:12;;;;;;;9.32;5.00;;;12.00;99.90;;;;;;5059758;28;20056;-81
2021/05/08 12:20:43;;;;;;;11.95;5.22;;;11.90;99.90;;;;;;5023565;28;20463;-81
2021/05/08 12:23:22;;;;;;;10.63;5.82;;;11.70;99.90;;;;;;5031937;28;20057;-81
2021/05/08 12:26:09;;;;;;;8.88;5.32;;;11.70;99.90;;;;;;5046336;28;20045;-81
2021/05/08 12:28:38;;;;;;;10.50;5.50;;;11.50;99.90;;;;;;5042584;28;20052;-82
2021/05/08 12:31:22;;;;;;;8.68;5.93;;;11.30;99.90;;;;;;5042581;28;20446;-82
2021/05/08 12:33:50;;;;;;;7.93;5.82;;;11.20;99.90;;;;;;5051733;28;20472;-82
2021/05/08 12:36:23;;;;;;;8.48;6.57;;;11.10;99.90;;;;;;5048124;28;20071;-82
2021/05/08 12:38:51;;;;;;;11.77;5.95;;;11.00;99.90;;;;;;5060260;28;20097;-81
2021/05/08 12:41:24;;;;;;;8.65;6.10;;;10.90;99.90;;;;;;5041437;28;20045;-81
2021/05/08 12:43:50;;;;;;;10.85;6.72;;;10.80;99.90;;;;;;5061195;28;20103;-81
2021/05/08 12:46:16;;;;;;;8.55;6.53;;;10.80;99.90;;;;;;5047800;28;20099;-82
2021/05/08 12:48:43;;;;;;;10.50;6.18;;;10.70;99.90;;;;;;5050239;28;20052;-81
2021/05/08 12:51:30;;;;;;;11.02;7.68;;;10.70;99.90;;;;;;5061744;28;20045;-82
2021/05/08 12:54:33;;;;;;;11.32;8.00;;;10.70;99.90;;;;;;5061101;28;20039;-82